Time;durP1;ratioP1;P1;durP2;ratioP2;P2;SDS_P1;SDS_P2;PMS_P1;PMS_P2;Temp;Humidity;BMP_temperature;BMP_pressure;BME280_temperature;BME280_humidity;BME280_pressure;Samples;Min_cycle;Max_cycle;Signal;HPM_P1;HPM_P2
2021/01/21 00:01:34;;;;;;;171.68;60.95;;;;;;;;;;8256576;28;20071;-75
2021/01/21 00:05:37;;;;;;;170.88;57.40;;;;;;;;;;8271673;28;20490;-76
2021/01/21 00:09:41;;;;;;;170.75;61.90;;;;;;;;;;8257135;28;20041;-75
2021/01/21 00:13:44;;;;;;;148.98;53.03;;;;;;;;;;8256312;28;20468;-75
2021/01/21 00:17:47;;;;;;;168.63;59.55;;;;;;;;;;8257164;28;20384;-75
2021/01/21 00:21:52;;;;;;;152.38;50.58;;;;;;;;;;8257303;28;20057;-75
2021/01/21 00:25:55;;;;;;;157.93;53.38;;;;;;;;;;8256785;28;20486;-75
2021/01/21 00:29:58;;;;;;;131.75;46.75;;;;;;;;;;8255757;28;20375;-75
2021/01/21 00:34:01;;;;;;;138.73;49.50;;;;;;;;;;8256591;28;20076;-75
2021/01/21 00:38:05;;;;;;;149.48;50.30;;;;;;;;;;8258197;28;20460;-76
2021/01/21 00:42:08;;;;;;;145.45;49.90;;;;;;;;;;8259086;28;20490;-76
2021/01/21 00:46:12;;;;;;;128.48;45.28;;;;;;;;;;8259836;28;20452;-76
2021/01/21 00:50:15;;;;;;;141.85;44.55;;;;;;;;;;8259580;28;20049;-75
2021/01/21 00:54:22;;;;;;;116.15;37.55;;;;;;;;;;8258795;28;20459;-76
2021/01/21 00:58:26;;;;;;;123.90;40.38;;;;;;;;;;8258930;28;20387;-76
2021/01/21 01:02:29;;;;;;;110.47;37.25;;;;;;;;;;8276592;28;20460;-75
2021/01/21 01:06:32;;;;;;;151.00;53.95;;;;;;;;;;8258893;28;20048;-76
2021/01/21 01:10:36;;;;;;;132.90;43.63;;;;;;;;;;8275801;28;20481;-76
2021/01/21 01:14:50;;;;;;;107.82;35.92;;;;;;;;;;8277002;28;20467;-75
2021/01/21 01:18:54;;;;;;;94.47;31.92;;;;;;;;;;8277069;28;20049;-76
2021/01/21 01:22:57;;;;;;;116.88;39.00;;;;;;;;;;8276354;28;20475;-75
2021/01/21 01:27:01;;;;;;;126.43;38.38;;;;;;;;;;8265991;28;20406;-76
2021/01/21 01:31:07;;;;;;;107.20;34.72;;;;;;;;;;8282655;28;20386;-75
2021/01/21 01:35:12;;;;;;;103.72;31.02;;;;;;;;;;8267692;28;20406;-76
2021/01/21 01:39:15;;;;;;;91.78;30.27;;;;;;;;;;8266718;28;20056;-76
2021/01/21 01:43:26;;;;;;;98.43;33.30;;;;;;;;;;8283253;28;20044;-76
2021/01/21 01:47:29;;;;;;;107.15;33.05;;;;;;;;;;8282333;28;20384;-75
2021/01/21 01:51:35;;;;;;;104.05;38.45;;;;;;;;;;8267185;28;20506;-75
2021/01/21 01:55:40;;;;;;;123.32;37.60;;;;;;;;;;8265777;28;20045;-76
2021/01/21 01:59:59;;;;;;;116.07;37.30;;;;;;;;;;8281027;28;20364;-76
2021/01/21 02:04:04;;;;;;;112.45;35.00;;;;;;;;;;8281851;28;20376;-76
2021/01/21 02:08:36;;;;;;;89.40;33.08;;;;;;;;;;8264715;28;20375;-76
2021/01/21 02:13:01;;;;;;;90.38;31.75;;;;;;;;;;8281597;28;20460;-76
2021/01/21 02:17:31;;;;;;;95.40;30.75;;;;;;;;;;8281168;28;20478;-76
2021/01/21 02:22:23;;;;;;;95.72;32.95;;;;;;;;;;8283520;28;20398;-76
2021/01/21 02:26:47;;;;;;;109.05;36.28;;;;;;;;;;8267466;28;20252;-75
2021/01/21 02:30:50;;;;;;;120.75;37.00;;;;;;;;;;8282486;28;20411;-76
2021/01/21 02:35:04;;;;;;;107.43;34.05;;;;;;;;;;8267164;28;20484;-76
2021/01/21 02:39:11;;;;;;;88.88;31.42;;;;;;;;;;8281240;28;20484;-75
2021/01/21 02:43:16;;;;;;;74.07;26.40;;;;;;;;;;8281992;28;20487;-75
2021/01/21 02:47:26;;;;;;;82.40;27.73;;;;;;;;;;8281825;28;20375;-76
2021/01/21 02:52:02;;;;;;;86.07;29.17;;;;;;;;;;8282385;28;20367;-75
2021/01/21 02:56:15;;;;;;;91.88;31.85;;;;;;;;;;8281125;28;20490;-76
2021/01/21 03:00:30;;;;;;;95.35;30.88;;;;;;;;;;8281016;28;20076;-76
2021/01/21 03:04:37;;;;;;;83.45;29.30;;;;;;;;;;8281105;28;20387;-75
2021/01/21 03:08:40;;;;;;;77.03;26.58;;;;;;;;;;8280926;28;20349;-76
2021/01/21 03:12:50;;;;;;;77.38;26.70;;;;;;;;;;8264518;28;20410;-76
2021/01/21 03:16:56;;;;;;;73.30;23.20;;;;;;;;;;8246269;28;20479;-75
2021/01/21 03:21:03;;;;;;;68.18;21.77;;;;;;;;;;8260709;28;20388;-76
2021/01/21 03:25:15;;;;;;;77.72;26.35;;;;;;;;;;8277012;28;20493;-76
2021/01/21 03:29:27;;;;;;;63.60;21.52;;;;;;;;;;8276216;28;20376;-75
2021/01/21 03:33:31;;;;;;;61.00;23.88;;;;;;;;;;8258684;28;20361;-78
2021/01/21 03:37:37;;;;;;;65.68;22.60;;;;;;;;;;8275031;28;20475;-75
2021/01/21 03:41:40;;;;;;;61.50;23.67;;;;;;;;;;8259238;28;20067;-75
2021/01/21 03:46:03;;;;;;;59.65;20.67;;;;;;;;;;8258139;28;20045;-75
2021/01/21 03:50:08;;;;;;;57.67;21.13;;;;;;;;;;8273338;28;20057;-76
2021/01/21 03:54:16;;;;;;;71.68;22.00;;;;;;;;;;8257847;28;20490;-75
2021/01/21 03:58:20;;;;;;;54.05;21.00;;;;;;;;;;8272061;28;20456;-75
2021/01/21 04:02:34;;;;;;;60.53;21.48;;;;;;;;;;8272500;28;20071;-75
2021/01/21 04:06:49;;;;;;;50.13;19.33;;;;;;;;;;8271339;28;20376;-75
2021/01/21 04:11:00;;;;;;;52.42;21.67;;;;;;;;;;8255729;28;20490;-76
2021/01/21 04:15:19;;;;;;;70.43;23.40;;;;;;;;;;8271494;28;20509;-75
2021/01/21 04:19:24;;;;;;;71.57;25.70;;;;;;;;;;8255258;28;20361;-75
2021/01/21 04:23:28;;;;;;;86.00;29.40;;;;;;;;;;8255361;28;20448;-74
2021/01/21 04:27:32;;;;;;;73.90;27.70;;;;;;;;;;8271912;28;20479;-75
2021/01/21 04:31:48;;;;;;;63.38;24.85;;;;;;;;;;8254789;28;20410;-74
2021/01/21 04:35:56;;;;;;;99.75;33.35;;;;;;;;;;8239182;28;20498;-75
2021/01/21 04:39:59;;;;;;;94.05;30.80;;;;;;;;;;8255064;28;20370;-74
2021/01/21 04:44:05;;;;;;;46.00;19.08;;;;;;;;;;8271101;28;20356;-74
2021/01/21 04:48:18;;;;;;;56.78;21.30;;;;;;;;;;8270793;28;20364;-74
2021/01/21 04:52:42;;;;;;;51.33;19.85;;;;;;;;;;8254830;28;20071;-75
2021/01/21 04:56:48;;;;;;;;;;;;;;;;;;8256075;28;20474;-74
2021/01/21 05:00:55;;;;;;;48.75;18.40;;;;;;;;;;8274623;28;19943;-74
2021/01/21 05:04:59;;;;;;;43.80;17.67;;;;;;;;;;8276686;28;20379;-74
2021/01/21 05:09:14;;;;;;;49.50;18.13;;;;;;;;;;8276707;28;20371;-73
2021/01/21 05:13:19;;;;;;;41.28;16.65;;;;;;;;;;8260699;28;20452;-74
2021/01/21 05:17:42;;;;;;;56.65;18.00;;;;;;;;;;8273912;28;20067;-74
2021/01/21 05:22:14;;;;;;;54.20;18.60;;;;;;;;;;8260875;28;20049;-74
2021/01/21 05:26:44;;;;;;;80.47;26.90;;;;;;;;;;8260610;28;20063;-74
2021/01/21 05:31:08;;;;;;;100.15;32.80;;;;;;;;;;8260594;28;20483;-74
2021/01/21 05:35:20;;;;;;;80.32;26.38;;;;;;;;;;8276137;28;20482;-73
2021/01/21 05:39:36;;;;;;;83.45;27.52;;;;;;;;;;8276327;28;20049;-73
2021/01/21 05:44:11;;;;;;;83.15;29.80;;;;;;;;;;8258935;28;20352;-74
2021/01/21 05:48:33;;;;;;;106.68;35.83;;;;;;;;;;8276117;28;20045;-74
2021/01/21 05:52:38;;;;;;;103.13;32.28;;;;;;;;;;8258871;28;20480;-73
2021/01/21 05:56:45;;;;;;;106.15;38.88;;;;;;;;;;8275620;28;20472;-73
2021/01/21 06:00:57;;;;;;;113.95;41.38;;;;;;;;;;8273677;28;20396;-73
2021/01/21 06:05:20;;;;;;;104.35;37.25;;;;;;;;;;8275366;28;20491;-73
2021/01/21 06:09:31;;;;;;;94.83;33.10;;;;;;;;;;8259004;28;20410;-73
2021/01/21 06:13:44;;;;;;;127.43;47.28;;;;;;;;;;8260070;28;20045;-73
2021/01/21 06:17:50;;;;;;;230.65;88.18;;;;;;;;;;8177809;28;20398;-73
2021/01/21 06:22:11;;;;;;;117.55;43.03;;;;;;;;;;8274829;28;20494;-73
2021/01/21 06:26:50;;;;;;;95.18;36.45;;;;;;;;;;8259751;28;20456;-73
2021/01/21 06:30:57;;;;;;;77.45;31.73;;;;;;;;;;8259767;28;20353;-73
2021/01/21 06:35:06;;;;;;;74.25;30.80;;;;;;;;;;8259568;28;20379;-73
2021/01/21 06:39:20;;;;;;;72.93;30.55;;;;;;;;;;8257714;28;20057;-73
2021/01/21 06:43:32;;;;;;;60.33;27.77;;;;;;;;;;8273115;28;20070;-73
2021/01/21 06:47:36;;;;;;;67.22;25.33;;;;;;;;;;8258463;28;20403;-73
2021/01/21 06:51:46;;;;;;;61.97;27.75;;;;;;;;;;8259102;28;20071;-73
2021/01/21 06:55:51;;;;;;;61.03;24.77;;;;;;;;;;8273742;28;20072;-73
2021/01/21 06:59:54;;;;;;;56.33;24.38;;;;;;;;;;8273343;28;20485;-73
2021/01/21 07:04:10;;;;;;;66.32;25.63;;;;;;;;;;8258597;28;20481;-73
2021/01/21 07:08:13;;;;;;;99.65;38.15;;;;;;;;;;8258739;28;20387;-73
2021/01/21 07:12:17;;;;;;;103.93;38.30;;;;;;;;;;8273591;28;20427;-73
2021/01/21 07:16:22;;;;;;;99.93;39.70;;;;;;;;;;8226744;28;20415;-73
2021/01/21 07:20:25;;;;;;;104.15;42.55;;;;;;;;;;8257171;28;20375;-73
2021/01/21 07:24:28;;;;;;;88.80;38.42;;;;;;;;;;8257810;28;20067;-73
2021/01/21 07:28:56;;;;;;;85.88;37.03;;;;;;;;;;8257882;28;20569;-73
2021/01/21 07:33:25;;;;;;;71.53;31.92;;;;;;;;;;8257952;28;20463;-73
2021/01/21 07:37:44;;;;;;;64.50;29.83;;;;;;;;;;8272035;28;20052;-73
2021/01/21 07:41:47;;;;;;;59.67;24.80;;;;;;;;;;8257412;28;20071;-73
2021/01/21 07:45:50;;;;;;;46.88;20.63;;;;;;;;;;8257106;28;20482;-73
2021/01/21 07:50:18;;;;;;;46.40;21.65;;;;;;;;;;8272101;28;20476;-73
2021/01/21 07:54:22;;;;;;;48.50;20.42;;;;;;;;;;8256650;28;20049;-72
2021/01/21 07:58:36;;;;;;;52.70;21.58;;;;;;;;;;8220049;28;20455;-72
2021/01/21 08:02:50;;;;;;;80.80;28.17;;;;;;;;;;8257018;28;20361;-72
2021/01/21 08:06:59;;;;;;;90.55;33.13;;;;;;;;;;8188049;28;20040;-73
2021/01/21 08:11:05;;;;;;;93.95;32.40;;;;;;;;;;8252143;28;20075;-72
2021/01/21 08:15:17;;;;;;;82.90;31.25;;;;;;;;;;8256223;28;20357;-72
2021/01/21 08:19:21;;;;;;;87.38;32.25;;;;;;;;;;8255049;28;20383;-72
2021/01/21 08:23:24;;;;;;;35.90;17.95;;;;;;;;;;8254280;28;20452;-72
2021/01/21 08:27:47;;;;;;;42.47;19.05;;;;;;;;;;8256437;28;20053;-72
2021/01/21 08:31:50;;;;;;;37.08;16.77;;;;;;;;;;8256959;28;20489;-72
2021/01/21 08:35:57;;;;;;;36.25;15.48;;;;;;;;;;8261858;28;20467;-72
2021/01/21 08:40:05;;;;;;;37.50;17.05;;;;;;;;;;8276664;28;20387;-73
2021/01/21 08:44:14;;;;;;;35.42;17.40;;;;;;;;;;8276250;28;20501;-73
2021/01/21 08:48:28;;;;;;;41.75;17.70;;;;;;;;;;8261737;28;20045;-73
2021/01/21 08:52:36;;;;;;;39.35;17.30;;;;;;;;;;8228710;28;20479;-73
2021/01/21 08:56:42;;;;;;;36.63;19.33;;;;;;;;;;8308442;28;20040;-74
2021/01/21 09:01:00;;;;;;;39.10;18.92;;;;;;;;;;8307448;28;20397;-71
2021/01/21 09:05:08;;;;;;;36.80;19.17;;;;;;;;;;8258209;28;20463;-72
2021/01/21 09:09:11;;;;;;;39.60;19.27;;;;;;;;;;8209332;28;20501;-71
2021/01/21 09:13:20;;;;;;;66.78;27.20;;;;;;;;;;8257951;28;20478;-72
2021/01/21 09:17:25;;;;;;;55.30;22.92;;;;;;;;;;8225251;28;20405;-73
2021/01/21 09:21:30;;;;;;;63.45;26.38;;;;;;;;;;8257630;28;20501;-74
2021/01/21 09:25:34;;;;;;;62.42;25.25;;;;;;;;;;8236135;28;20108;-73
2021/01/21 09:30:06;;;;;;;62.63;26.38;;;;;;;;;;8224987;28;20472;-73
2021/01/21 09:34:09;;;;;;;115.18;49.78;;;;;;;;;;8207726;28;20502;-74
2021/01/21 09:38:13;;;;;;;156.10;72.82;;;;;;;;;;8224031;28;20049;-74
2021/01/21 09:42:17;;;;;;;152.50;71.10;;;;;;;;;;8249868;28;20071;-76
2021/01/21 09:46:20;;;;;;;159.75;71.07;;;;;;;;;;8259473;28;20371;-76
2021/01/21 09:50:24;;;;;;;153.05;69.97;;;;;;;;;;8260564;28;20460;-77
2021/01/21 09:54:28;;;;;;;154.32;70.82;;;;;;;;;;8271212;28;20040;-77
2021/01/21 09:58:31;;;;;;;130.88;59.78;;;;;;;;;;8292898;28;20409;-78
2021/01/21 10:02:34;;;;;;;87.18;40.28;;;;;;;;;;8284306;28;20506;-77
2021/01/21 10:06:38;;;;;;;84.05;36.00;;;;;;;;;;8274205;28;20452;-78
2021/01/21 10:10:41;;;;;;;64.60;29.40;;;;;;;;;;8260482;28;20464;-77
2021/01/21 10:14:45;;;;;;;82.30;37.22;;;;;;;;;;8275071;28;20063;-77
2021/01/21 10:18:48;;;;;;;59.45;27.20;;;;;;;;;;8195390;28;20489;-77
2021/01/21 10:22:51;;;;;;;66.03;32.40;;;;;;;;;;8274592;28;20505;-76
2021/01/21 10:26:55;;;;;;;43.85;22.10;;;;;;;;;;8287929;28;20479;-76
2021/01/21 10:30:58;;;;;;;44.92;20.15;;;;;;;;;;8255451;28;20486;-76
2021/01/21 10:35:05;;;;;;;35.47;16.73;;;;;;;;;;8287491;28;20463;-75
2021/01/21 10:39:09;;;;;;;38.25;19.35;;;;;;;;;;8287696;28;20455;-75
2021/01/21 10:43:16;;;;;;;44.58;21.65;;;;;;;;;;8271486;28;20580;-75
2021/01/21 10:47:19;;;;;;;35.42;17.00;;;;;;;;;;8270959;28;20133;-76
2021/01/21 10:51:23;;;;;;;29.67;14.07;;;;;;;;;;8221952;28;20063;-75
2021/01/21 10:55:26;;;;;;;100.70;43.80;;;;;;;;;;8268783;28;20360;-75
2021/01/21 10:59:29;;;;;;;49.85;22.00;;;;;;;;;;8272968;28;20395;-76
2021/01/21 11:03:32;;;;;;;45.58;23.10;;;;;;;;;;8272438;28;20495;-76
2021/01/21 11:07:36;;;;;;;21.00;11.93;;;;;;;;;;8257846;28;20383;-75
2021/01/21 11:11:40;;;;;;;34.80;15.38;;;;;;;;;;8256403;28;20463;-75
2021/01/21 11:15:48;;;;;;;56.65;29.75;;;;;;;;;;8259613;28;20367;-75
2021/01/21 11:19:51;;;;;;;;;;;;;;;;;;8272770;28;20375;-75
2021/01/21 11:23:54;;;;;;;56.60;25.52;;;;;;;;;;8256953;28;20344;-74
2021/01/21 11:27:57;;;;;;;33.22;15.50;;;;;;;;;;8258929;28;20478;-74
2021/01/21 11:32:01;;;;;;;31.17;15.32;;;;;;;;;;8255903;28;20376;-75
2021/01/21 11:36:04;;;;;;;29.13;14.35;;;;;;;;;;8269999;28;20482;-74
2021/01/21 11:40:08;;;;;;;32.38;17.88;;;;;;;;;;8257500;28;20418;-74
2021/01/21 11:44:11;;;;;;;35.30;18.02;;;;;;;;;;8256949;28;20521;-73
2021/01/21 11:48:15;;;;;;;33.50;16.40;;;;;;;;;;8257367;28;20376;-73
2021/01/21 11:52:18;;;;;;;32.40;15.95;;;;;;;;;;8257264;28;20375;-73
2021/01/21 11:56:22;;;;;;;32.53;14.93;;;;;;;;;;8254611;28;20071;-73
2021/01/21 12:00:51;;;;;;;26.98;13.50;;;;;;;;;;8254362;28;20083;-73
2021/01/21 12:04:54;;;;;;;35.30;16.27;;;;;;;;;;8256487;28;20491;-73
2021/01/21 12:08:58;;;;;;;59.45;23.30;;;;;;;;;;8256340;28;20379;-73
2021/01/21 12:13:01;;;;;;;38.63;15.57;;;;;;;;;;8256625;28;20382;-74
2021/01/21 12:17:05;;;;;;;22.60;11.73;;;;;;;;;;8271372;28;20079;-72
2021/01/21 12:21:09;;;;;;;29.40;12.65;;;;;;;;;;8256263;28;20480;-73
2021/01/21 12:25:12;;;;;;;40.92;15.00;;;;;;;;;;8256323;28;20364;-73
2021/01/21 12:29:19;;;;;;;49.80;16.98;;;;;;;;;;8268963;28;20391;-76
2021/01/21 12:33:34;;;;;;;55.53;17.15;;;;;;;;;;8256223;28;20360;-74
2021/01/21 12:37:38;;;;;;;60.72;21.77;;;;;;;;;;8256238;28;20053;-75
2021/01/21 12:41:44;;;;;;;29.58;11.30;;;;;;;;;;8256526;28;20368;-74
2021/01/21 12:45:50;;;;;;;34.95;12.50;;;;;;;;;;8256407;28;20474;-74
2021/01/21 12:49:53;;;;;;;47.95;16.42;;;;;;;;;;8259985;28;20053;-76
2021/01/21 12:53:56;;;;;;;41.97;18.73;;;;;;;;;;8260083;28;20402;-75
2021/01/21 12:58:03;;;;;;;23.80;11.48;;;;;;;;;;8265918;28;20487;-76
2021/01/21 13:02:07;;;;;;;16.25;6.78;;;;;;;;;;8262956;28;20522;-76
2021/01/21 13:06:10;;;;;;;20.85;7.72;;;;;;;;;;8272721;28;20483;-76
2021/01/21 13:10:15;;;;;;;27.15;8.10;;;;;;;;;;8269592;28;20395;-74
2021/01/21 13:14:18;;;;;;;12.43;6.07;;;;;;;;;;8256160;28;20483;-75
2021/01/21 13:18:26;;;;;;;12.68;6.35;;;;;;;;;;8255674;28;20064;-75
2021/01/21 13:22:29;;;;;;;15.02;6.35;;;;;;;;;;8262434;28;20514;-76
2021/01/21 13:26:33;;;;;;;23.83;9.55;;;;;;;;;;8276784;28;20464;-75
2021/01/21 13:30:36;;;;;;;33.85;13.05;;;;;;;;;;8262785;28;20475;-74
2021/01/21 13:34:43;;;;;;;35.38;17.08;;;;;;;;;;8278696;28;20407;-75
2021/01/21 13:38:47;;;;;;;40.28;19.10;;;;;;;;;;8219563;28;20505;-76
2021/01/21 13:42:50;;;;;;;33.03;12.15;;;;;;;;;;8290908;28;20387;-78
2021/01/21 13:46:53;;;;;;;35.72;18.55;;;;;;;;;;8319057;28;20349;-78
2021/01/21 13:50:57;;;;;;;33.50;19.35;;;;;;;;;;8320648;28;20079;-77
2021/01/21 13:55:00;;;;;;;35.03;14.85;;;;;;;;;;8271944;28;20049;-78
2021/01/21 13:59:04;;;;;;;25.20;11.85;;;;;;;;;;8306790;28;20055;-78
2021/01/21 14:03:08;;;;;;;31.42;14.15;;;;;;;;;;8303770;28;20491;-77
2021/01/21 14:07:11;;;;;;;52.72;30.02;;;;;;;;;;8307933;28;20447;-78
2021/01/21 14:11:16;;;;;;;44.35;24.83;;;;;;;;;;8276936;28;20067;-78
2021/01/21 14:15:19;;;;;;;34.38;14.80;;;;;;;;;;8271538;28;20468;-77
2021/01/21 14:19:22;;;;;;;336.45;68.68;;;;;;;;;;8267575;28;20364;-77
2021/01/21 14:23:25;;;;;;;324.88;113.40;;;;;;;;;;8268377;28;20160;-78
2021/01/21 14:27:29;;;;;;;261.60;93.18;;;;;;;;;;8266752;28;20379;-77
2021/01/21 14:31:32;;;;;;;349.77;135.40;;;;;;;;;;8264642;28;20395;-77
2021/01/21 14:35:36;;;;;;;169.82;53.00;;;;;;;;;;8261713;28;20380;-77
2021/01/21 14:39:39;;;;;;;51.22;17.38;;;;;;;;;;8262234;28;20053;-78
2021/01/21 14:43:42;;;;;;;31.17;13.27;;;;;;;;;;8259463;28;20082;-77
2021/01/21 14:47:45;;;;;;;34.50;14.07;;;;;;;;;;8258592;28;20488;-77
2021/01/21 14:51:48;;;;;;;37.35;15.90;;;;;;;;;;8259304;28;20384;-77
2021/01/21 14:55:52;;;;;;;66.82;32.22;;;;;;;;;;8279250;28;20359;-77
2021/01/21 14:59:56;;;;;;;41.45;18.77;;;;;;;;;;8285692;28;20482;-77
2021/01/21 15:03:59;;;;;;;32.88;16.02;;;;;;;;;;8289733;28;20493;-78
2021/01/21 15:08:04;;;;;;;40.25;16.92;;;;;;;;;;8288549;28;20048;-77
2021/01/21 15:12:08;;;;;;;41.25;17.05;;;;;;;;;;8290806;28;20349;-77
2021/01/21 15:16:11;;;;;;;91.35;33.75;;;;;;;;;;8288235;28;20398;-77
2021/01/21 15:20:14;;;;;;;129.43;54.28;;;;;;;;;;8288220;28;20094;-77
2021/01/21 15:24:18;;;;;;;32.30;12.68;;;;;;;;;;8288960;28;20405;-77
2021/01/21 15:28:21;;;;;;;24.88;11.98;;;;;;;;;;8289475;28;20387;-77
2021/01/21 15:32:24;;;;;;;26.13;13.05;;;;;;;;;;8288989;28;20363;-77
2021/01/21 15:36:28;;;;;;;50.17;17.38;;;;;;;;;;8288195;28;20367;-77
2021/01/21 15:40:31;;;;;;;47.47;16.88;;;;;;;;;;8303162;28;20475;-76
2021/01/21 15:44:36;;;;;;;40.45;17.60;;;;;;;;;;8283180;28;20470;-76
2021/01/21 15:48:39;;;;;;;30.42;14.23;;;;;;;;;;8265778;28;20471;-76
2021/01/21 15:52:42;;;;;;;34.13;14.60;;;;;;;;;;8288397;28;20443;-76
2021/01/21 15:56:45;;;;;;;28.65;12.73;;;;;;;;;;8289043;28;20045;-76
2021/01/21 16:00:49;;;;;;;44.75;20.20;;;;;;;;;;8287739;28;20459;-76
2021/01/21 16:04:53;;;;;;;87.35;35.28;;;;;;;;;;8287327;28;20352;-76
2021/01/21 16:08:56;;;;;;;148.27;60.03;;;;;;;;;;8290900;28;20368;-76
2021/01/21 16:12:59;;;;;;;139.88;58.85;;;;;;;;;;8291934;28;20051;-76
2021/01/21 16:17:03;;;;;;;311.17;91.10;;;;;;;;;;8294923;28;20379;-75
2021/01/21 16:21:06;;;;;;;359.02;97.13;;;;;;;;;;8299723;28;20098;-75
2021/01/21 16:25:12;;;;;;;372.42;107.47;;;;;;;;;;8297737;28;20062;-75
2021/01/21 16:29:17;;;;;;;342.85;108.28;;;;;;;;;;8302570;28;20499;-75
2021/01/21 16:33:22;;;;;;;246.93;79.38;;;;;;;;;;8310181;28;20473;-75
2021/01/21 16:37:25;;;;;;;217.77;65.50;;;;;;;;;;8339153;28;20048;-75
2021/01/21 16:41:34;;;;;;;222.35;68.32;;;;;;;;;;8335342;28;20044;-74
2021/01/21 16:45:38;;;;;;;172.93;59.78;;;;;;;;;;8329932;28;20063;-74
2021/01/21 16:49:42;;;;;;;146.13;50.85;;;;;;;;;;8325463;28;20373;-74
2021/01/21 16:53:46;;;;;;;137.73;46.13;;;;;;;;;;8339309;28;20066;-74
2021/01/21 16:57:49;;;;;;;135.23;43.92;;;;;;;;;;8326428;28;20075;-74
2021/01/21 17:01:53;;;;;;;117.88;39.85;;;;;;;;;;8328862;28;20060;-73
2021/01/21 17:05:58;;;;;;;103.85;35.53;;;;;;;;;;8326868;28;20056;-73
2021/01/21 17:10:01;;;;;;;89.75;31.35;;;;;;;;;;8328307;28;20477;-73
2021/01/21 17:14:05;;;;;;;81.55;31.55;;;;;;;;;;8340746;28;20481;-73
2021/01/21 17:18:08;;;;;;;92.82;31.33;;;;;;;;;;8342217;28;20485;-73
2021/01/21 17:22:12;;;;;;;107.45;38.75;;;;;;;;;;8326863;28;20475;-73
2021/01/21 17:26:15;;;;;;;97.53;35.88;;;;;;;;;;8324452;28;20382;-74
2021/01/21 17:30:19;;;;;;;106.22;39.42;;;;;;;;;;8324760;28;20477;-73
2021/01/21 17:34:22;;;;;;;117.55;36.20;;;;;;;;;;8325856;28;20056;-73
2021/01/21 17:38:25;;;;;;;126.15;38.70;;;;;;;;;;8312065;28;20403;-73
2021/01/21 17:42:29;;;;;;;126.50;36.95;;;;;;;;;;8291349;28;20487;-75
2021/01/21 17:46:33;;;;;;;121.82;33.88;;;;;;;;;;8292829;28;20083;-73
2021/01/21 17:50:37;;;;;;;93.40;29.27;;;;;;;;;;8277134;28;20056;-73
2021/01/21 17:54:42;;;;;;;88.05;28.13;;;;;;;;;;8291889;28;20383;-74
2021/01/21 17:58:45;;;;;;;83.68;27.23;;;;;;;;;;8292343;28;20383;-73
2021/01/21 18:02:48;;;;;;;82.75;26.17;;;;;;;;;;8306012;28;20463;-73
2021/01/21 18:06:51;;;;;;;79.30;27.50;;;;;;;;;;8288262;28;20402;-73
2021/01/21 18:10:54;;;;;;;59.65;22.23;;;;;;;;;;8291559;28;20052;-72
2021/01/21 18:14:57;;;;;;;64.53;25.13;;;;;;;;;;8305293;28;20379;-73
2021/01/21 18:19:03;;;;;;;98.30;35.35;;;;;;;;;;8292898;28;20459;-74
2021/01/21 18:23:06;;;;;;;92.93;33.53;;;;;;;;;;8292369;28;20483;-73
2021/01/21 18:27:09;;;;;;;79.70;27.02;;;;;;;;;;8307013;28;20379;-73
2021/01/21 18:31:13;;;;;;;93.35;32.30;;;;;;;;;;8292796;28;20475;-73
2021/01/21 18:35:18;;;;;;;147.73;51.55;;;;;;;;;;8307289;28;20045;-73
2021/01/21 18:39:21;;;;;;;145.02;51.55;;;;;;;;;;8292084;28;20467;-73
2021/01/21 18:43:24;;;;;;;106.57;38.97;;;;;;;;;;8291942;28;20466;-73
2021/01/21 18:47:27;;;;;;;97.60;34.78;;;;;;;;;;8292014;28;20052;-73
2021/01/21 18:51:32;;;;;;;147.13;48.08;;;;;;;;;;8291478;28;20045;-73
2021/01/21 18:55:35;;;;;;;141.95;46.28;;;;;;;;;;8291161;28;20491;-73
2021/01/21 18:59:38;;;;;;;140.43;47.75;;;;;;;;;;8291395;28;20475;-73
2021/01/21 19:03:45;;;;;;;94.18;36.20;;;;;;;;;;8291314;28;20475;-73
2021/01/21 19:07:50;;;;;;;105.28;39.50;;;;;;;;;;8291149;28;20370;-74
2021/01/21 19:11:53;;;;;;;111.07;39.67;;;;;;;;;;8290831;28;20357;-73
2021/01/21 19:15:57;;;;;;;103.47;38.13;;;;;;;;;;8290692;28;20471;-74
2021/01/21 19:20:00;;;;;;;97.93;37.08;;;;;;;;;;8290733;28;20400;-74
2021/01/21 19:24:03;;;;;;;103.43;37.88;;;;;;;;;;8290566;28;20052;-74
2021/01/21 19:28:07;;;;;;;127.30;46.33;;;;;;;;;;8290058;28;20048;-73
2021/01/21 19:32:13;;;;;;;109.30;41.55;;;;;;;;;;8290290;28;20111;-74
2021/01/21 19:36:17;;;;;;;127.22;49.03;;;;;;;;;;8255366;28;20045;-74
2021/01/21 19:40:21;;;;;;;158.40;52.63;;;;;;;;;;8290001;28;20460;-74
2021/01/21 19:44:25;;;;;;;157.55;47.97;;;;;;;;;;8289692;28;20475;-74
2021/01/21 19:48:29;;;;;;;159.77;54.65;;;;;;;;;;8290277;28;20045;-74
2021/01/21 19:52:33;;;;;;;149.50;50.50;;;;;;;;;;8289482;28;20040;-74
2021/01/21 19:56:37;;;;;;;164.98;56.00;;;;;;;;;;8290036;28;20072;-74
2021/01/21 20:00:41;;;;;;;130.75;48.25;;;;;;;;;;8289650;28;20071;-75
2021/01/21 20:04:44;;;;;;;143.88;49.50;;;;;;;;;;8318136;28;20462;-74
2021/01/21 20:08:48;;;;;;;129.98;48.80;;;;;;;;;;8318881;28;20362;-74
2021/01/21 20:12:59;;;;;;;123.07;44.45;;;;;;;;;;8318492;28;20066;-74
2021/01/21 20:17:03;;;;;;;113.95;39.67;;;;;;;;;;8334508;28;20406;-74
2021/01/21 20:21:08;;;;;;;193.82;68.57;;;;;;;;;;8302377;28;20087;-74
2021/01/21 20:25:14;;;;;;;201.73;59.20;;;;;;;;;;8317573;28;20482;-74
2021/01/21 20:29:34;;;;;;;138.23;43.65;;;;;;;;;;8293538;28;20692;-74
2021/01/21 20:33:40;;;;;;;140.65;46.35;;;;;;;;;;8320082;28;20052;-74
2021/01/21 20:37:43;;;;;;;103.22;35.70;;;;;;;;;;8295330;28;20477;-74
2021/01/21 20:41:47;;;;;;;112.53;39.03;;;;;;;;;;8277095;28;20486;-74
2021/01/21 20:45:51;;;;;;;130.45;45.20;;;;;;;;;;8294241;28;20372;-74
2021/01/21 20:49:55;;;;;;;131.77;48.33;;;;;;;;;;8293648;28;20480;-74
2021/01/21 20:53:59;;;;;;;148.27;50.10;;;;;;;;;;8295221;28;20378;-74
2021/01/21 20:58:11;;;;;;;161.90;50.50;;;;;;;;;;8295278;28;20387;-79
2021/01/21 21:02:17;;;;;;;131.60;45.13;;;;;;;;;;8306897;28;20401;-75
2021/01/21 21:06:20;;;;;;;113.70;40.88;;;;;;;;;;8273921;28;20463;-74
2021/01/21 21:10:23;;;;;;;105.88;35.65;;;;;;;;;;8323740;28;20356;-73
2021/01/21 21:14:26;;;;;;;82.25;31.25;;;;;;;;;;8323495;28;20052;-74
2021/01/21 21:18:29;;;;;;;145.52;42.75;;;;;;;;;;8323897;28;20425;-74
2021/01/21 21:22:34;;;;;;;120.70;37.90;;;;;;;;;;8323354;28;20382;-74
2021/01/21 21:26:41;;;;;;;98.60;34.17;;;;;;;;;;8340606;28;20359;-74
2021/01/21 21:30:47;;;;;;;102.05;34.08;;;;;;;;;;8323824;28;20378;-73
2021/01/21 21:34:50;;;;;;;140.27;37.00;;;;;;;;;;8323114;28;20458;-73
2021/01/21 21:38:53;;;;;;;81.75;30.55;;;;;;;;;;8325605;28;20451;-73
2021/01/21 21:42:56;;;;;;;150.63;40.75;;;;;;;;;;8293054;28;20082;-73
2021/01/21 21:46:59;;;;;;;97.20;34.08;;;;;;;;;;8291891;28;20383;-73
2021/01/21 21:51:04;;;;;;;119.68;41.35;;;;;;;;;;8295320;28;20364;-73
2021/01/21 21:55:08;;;;;;;94.15;32.88;;;;;;;;;;8293659;28;20368;-73
2021/01/21 21:59:11;;;;;;;84.35;32.67;;;;;;;;;;8293161;28;20075;-73
2021/01/21 22:03:14;;;;;;;91.72;32.08;;;;;;;;;;8293527;28;20044;-76
2021/01/21 22:07:17;;;;;;;85.60;27.70;;;;;;;;;;8293372;28;20348;-73
2021/01/21 22:11:20;;;;;;;87.97;32.13;;;;;;;;;;8292608;28;20479;-74
2021/01/21 22:15:23;;;;;;;92.20;31.52;;;;;;;;;;8308096;28;20048;-73
2021/01/21 22:19:30;;;;;;;177.52;49.08;;;;;;;;;;8307400;28;20410;-73
2021/01/21 22:23:34;;;;;;;117.68;40.67;;;;;;;;;;8292386;28;20463;-73
2021/01/21 22:27:37;;;;;;;93.50;30.98;;;;;;;;;;8291489;28;20481;-72
2021/01/21 22:31:40;;;;;;;75.15;27.40;;;;;;;;;;8307593;28;20056;-73
2021/01/21 22:35:44;;;;;;;83.38;27.27;;;;;;;;;;8292754;28;20493;-72
2021/01/21 22:39:47;;;;;;;93.10;28.17;;;;;;;;;;8291785;28;20497;-72
2021/01/21 22:43:51;;;;;;;79.95;28.25;;;;;;;;;;8291866;28;20357;-72
2021/01/21 22:47:54;;;;;;;58.05;22.40;;;;;;;;;;8291835;28;20054;-72
2021/01/21 22:51:58;;;;;;;50.85;19.50;;;;;;;;;;8291212;28;20056;-72
2021/01/21 22:56:01;;;;;;;52.65;19.50;;;;;;;;;;8291692;28;20063;-72
2021/01/21 23:00:12;;;;;;;63.67;18.95;;;;;;;;;;8290451;28;20052;-72
2021/01/21 23:04:17;;;;;;;48.58;17.92;;;;;;;;;;8289750;28;20509;-72
2021/01/21 23:08:19;;;;;;;49.97;16.75;;;;;;;;;;8291831;28;20378;-71
2021/01/21 23:12:22;;;;;;;48.83;18.85;;;;;;;;;;8306385;28;20375;-71
2021/01/21 23:16:25;;;;;;;50.00;17.45;;;;;;;;;;8290937;28;20079;-72
2021/01/21 23:20:29;;;;;;;49.15;17.15;;;;;;;;;;8290671;28;20459;-71
2021/01/21 23:24:32;;;;;;;33.92;13.75;;;;;;;;;;8290962;28;20111;-71
2021/01/21 23:28:37;;;;;;;40.65;13.68;;;;;;;;;;8291056;28;20387;-71
2021/01/21 23:32:40;;;;;;;44.95;14.65;;;;;;;;;;8305430;28;20383;-71
2021/01/21 23:36:44;;;;;;;40.03;13.52;;;;;;;;;;8290308;28;20503;-71
2021/01/21 23:40:46;;;;;;;34.22;13.02;;;;;;;;;;8290312;28;20455;-71
2021/01/21 23:44:49;;;;;;;33.28;12.27;;;;;;;;;;8289577;28;20410;-73
2021/01/21 23:48:53;;;;;;;31.15;11.55;;;;;;;;;;8290088;28;20075;-71